Time;durP1;ratioP1;P1;durP2;ratioP2;P2;SDS_P1;SDS_P2;PMS_P1;PMS_P2;Temp;Humidity;BMP_temperature;BMP_pressure;BME280_temperature;BME280_humidity;BME280_pressure;Samples;Min_cycle;Max_cycle;Signal;HPM_P1;HPM_P2
2023/05/13 00:01:41;;;;;;;0.28;0.28;;;11.40;99.90;;;;;;5093306;28;20184;-58
2023/05/13 00:04:08;;;;;;;0.00;0.00;;;11.30;99.90;;;;;;5093023;28;20271;-58
2023/05/13 00:06:34;;;;;;;0.00;0.00;;;11.30;99.90;;;;;;5093085;28;20314;-58
2023/05/13 00:09:00;;;;;;;0.22;0.22;;;11.20;99.90;;;;;;5093010;28;20176;-58
2023/05/13 00:11:26;;;;;;;0.00;0.00;;;11.20;99.90;;;;;;5093037;28;20203;-57
2023/05/13 00:13:52;;;;;;;0.00;0.00;;;11.20;99.90;;;;;;5093273;28;20261;-58
2023/05/13 00:16:17;;;;;;;0.00;0.00;;;11.10;99.90;;;;;;5093008;28;20214;-58
2023/05/13 00:18:43;;;;;;;0.00;0.00;;;11.10;99.90;;;;;;5092866;28;20261;-58
2023/05/13 00:21:08;;;;;;;0.32;0.30;;;11.10;99.90;;;;;;5092670;28;20216;-57
2023/05/13 00:23:34;;;;;;;0.00;0.00;;;11.00;99.90;;;;;;5092661;28;20584;-58
2023/05/13 00:26:00;;;;;;;0.00;0.00;;;11.00;99.90;;;;;;5092931;28;20180;-58
2023/05/13 00:28:25;;;;;;;0.00;0.00;;;11.00;99.90;;;;;;5092840;28;20651;-57
2023/05/13 00:30:51;;;;;;;0.00;0.00;;;10.90;99.90;;;;;;5092534;28;20184;-57
2023/05/13 00:33:17;;;;;;;0.28;0.28;;;10.90;99.90;;;;;;5092767;28;20193;-58
2023/05/13 00:35:42;;;;;;;0.00;0.00;;;10.90;99.90;;;;;;5092639;28;20207;-58
2023/05/13 00:38:08;;;;;;;0.28;0.28;;;10.80;99.90;;;;;;5092478;28;20507;-57
2023/05/13 00:40:38;;;;;;;0.00;0.00;;;10.80;99.90;;;;;;5092423;28;20221;-57
2023/05/13 00:43:04;;;;;;;0.00;0.00;;;10.80;99.90;;;;;;5076554;28;20180;-58
2023/05/13 00:45:30;;;;;;;0.00;0.00;;;10.70;99.90;;;;;;5092170;28;20184;-58
2023/05/13 00:47:56;;;;;;;0.00;0.00;;;10.70;99.90;;;;;;5092442;28;20184;-58
2023/05/13 00:50:22;;;;;;;0.10;0.10;;;10.70;99.90;;;;;;5092357;28;20184;-58
2023/05/13 00:52:50;;;;;;;0.00;0.00;;;10.60;99.90;;;;;;5092018;28;20180;-57
2023/05/13 00:55:16;;;;;;;0.00;0.00;;;10.60;99.90;;;;;;5092208;28;20187;-57
2023/05/13 00:57:42;;;;;;;0.00;0.00;;;10.60;99.90;;;;;;5092179;28;20523;-57
2023/05/13 01:00:09;;;;;;;0.00;0.00;;;10.50;99.90;;;;;;5091851;28;20318;-57
2023/05/13 01:02:51;;;;;;;0.05;0.05;;;10.50;99.90;;;;;;5092303;28;20543;-57
2023/05/13 01:05:53;;;;;;;0.10;0.10;;;10.50;99.90;;;;;;5098974;28;20172;-58
2023/05/13 01:08:42;;;;;;;0.00;0.00;;;10.40;99.90;;;;;;5091930;28;20658;-58
2023/05/13 01:11:14;;;;;;;0.00;0.00;;;10.40;99.90;;;;;;5075820;28;20695;-57
2023/05/13 01:13:43;;;;;;;0.00;0.00;;;10.40;99.90;;;;;;5092086;28;20184;-57
2023/05/13 01:16:14;;;;;;;0.00;0.00;;;10.30;99.90;;;;;;5091735;28;20177;-58
2023/05/13 01:18:44;;;;;;;0.00;0.00;;;10.30;99.90;;;;;;5091828;28;20180;-58
2023/05/13 01:21:10;;;;;;;0.00;0.00;;;10.30;99.90;;;;;;5084027;28;20765;-58
2023/05/13 01:23:36;;;;;;;0.00;0.00;;;10.20;99.90;;;;;;5091574;28;20172;-58
2023/05/13 01:26:02;;;;;;;0.00;0.00;;;10.20;99.90;;;;;;5091477;28;20186;-58
2023/05/13 01:28:27;;;;;;;0.00;0.00;;;10.20;99.90;;;;;;5091794;28;20642;-58
2023/05/13 01:30:55;;;;;;;0.00;0.00;;;10.20;99.90;;;;;;5090856;28;20662;-58
2023/05/13 01:33:22;;;;;;;0.00;0.00;;;10.20;99.90;;;;;;5091555;28;20184;-57
2023/05/13 01:35:47;;;;;;;0.00;0.00;;;10.20;99.90;;;;;;5091323;28;20644;-58
2023/05/13 01:38:14;;;;;;;0.00;0.00;;;10.20;99.90;;;;;;5091214;28;20186;-58
2023/05/13 01:40:40;;;;;;;0.00;0.00;;;10.20;99.90;;;;;;5091249;28;20219;-58
2023/05/13 01:43:06;;;;;;;0.00;0.00;;;10.20;99.90;;;;;;5091050;28;20203;-57
2023/05/13 01:45:32;;;;;;;0.00;0.00;;;10.20;99.90;;;;;;5091538;28;20191;-58
2023/05/13 01:47:58;;;;;;;0.00;0.00;;;10.20;99.90;;;;;;5091118;28;20168;-58
2023/05/13 01:50:24;;;;;;;0.00;0.00;;;10.20;99.90;;;;;;5091460;28;20595;-57
2023/05/13 01:52:49;;;;;;;0.00;0.00;;;10.10;99.90;;;;;;5091205;28;20176;-58
2023/05/13 01:55:15;;;;;;;0.10;0.10;;;10.10;99.90;;;;;;5074993;28;20237;-58
2023/05/13 01:57:40;;;;;;;0.00;0.00;;;10.00;99.90;;;;;;5091316;28;20175;-57
2023/05/13 02:00:07;;;;;;;0.00;0.00;;;10.00;99.90;;;;;;5091044;28;20211;-58
2023/05/13 02:02:32;;;;;;;0.00;0.00;;;9.90;99.90;;;;;;5091100;28;20212;-58
2023/05/13 02:04:58;;;;;;;0.00;0.00;;;9.90;99.90;;;;;;5090865;28;20207;-58
2023/05/13 02:07:23;;;;;;;0.00;0.00;;;9.80;99.90;;;;;;5089734;28;20635;-58
2023/05/13 02:09:49;;;;;;;0.10;0.10;;;9.80;99.90;;;;;;5090555;28;20259;-58
2023/05/13 02:12:15;;;;;;;0.00;0.00;;;9.70;99.90;;;;;;5090681;28;20168;-57
2023/05/13 02:14:41;;;;;;;0.00;0.00;;;9.70;99.90;;;;;;5086508;28;20188;-55
2023/05/13 02:17:06;;;;;;;0.00;0.00;;;9.70;99.90;;;;;;5090416;28;20180;-55
2023/05/13 02:19:32;;;;;;;0.00;0.00;;;9.60;99.90;;;;;;5090891;28;20296;-55
2023/05/13 02:21:57;;;;;;;0.00;0.00;;;9.60;99.90;;;;;;5090813;28;20180;-55
2023/05/13 02:24:23;;;;;;;0.00;0.00;;;9.60;99.90;;;;;;5090432;28;20273;-55
2023/05/13 02:26:48;;;;;;;0.00;0.00;;;9.50;99.90;;;;;;5090499;28;20176;-55
2023/05/13 02:29:14;;;;;;;0.00;0.00;;;9.50;99.90;;;;;;5090610;28;20247;-55
2023/05/13 02:31:41;;;;;;;0.00;0.00;;;9.50;99.90;;;;;;5090495;28;20178;-55
2023/05/13 02:34:07;;;;;;;0.10;0.10;;;9.50;99.90;;;;;;5090469;28;20191;-55
2023/05/13 02:36:33;;;;;;;0.00;0.00;;;9.40;99.90;;;;;;5088283;28;20184;-55
2023/05/13 02:38:58;;;;;;;0.00;0.00;;;9.40;99.90;;;;;;5090393;28;20246;-55
2023/05/13 02:41:24;;;;;;;0.00;0.00;;;9.40;99.90;;;;;;5080957;28;20219;-55
2023/05/13 02:43:49;;;;;;;0.00;0.00;;;9.40;99.90;;;;;;5090815;28;20646;-55
2023/05/13 02:46:15;;;;;;;0.00;0.00;;;9.30;99.90;;;;;;5090500;28;20255;-55
2023/05/13 02:48:40;;;;;;;0.10;0.10;;;9.30;99.90;;;;;;5090771;28;20263;-57
2023/05/13 02:51:06;;;;;;;0.00;0.00;;;9.30;99.90;;;;;;5090122;28;20237;-58
2023/05/13 02:53:32;;;;;;;0.00;0.00;;;9.20;99.90;;;;;;5090715;28;20270;-57
2023/05/13 02:55:58;;;;;;;0.00;0.00;;;9.20;99.90;;;;;;5090449;28;20176;-58
2023/05/13 02:58:23;;;;;;;0.00;0.00;;;9.20;99.90;;;;;;5090672;28;20191;-58
2023/05/13 03:00:49;;;;;;;0.00;0.00;;;9.20;99.90;;;;;;5090163;28;20216;-58
2023/05/13 03:03:15;;;;;;;0.10;0.10;;;9.20;99.90;;;;;;5090268;28;20191;-58
2023/05/13 03:05:40;;;;;;;0.00;0.00;;;9.20;99.90;;;;;;5090586;28;20221;-58
2023/05/13 03:08:06;;;;;;;0.15;0.15;;;9.10;99.90;;;;;;5090203;28;20196;-58
2023/05/13 03:10:31;;;;;;;0.00;0.00;;;9.20;99.90;;;;;;5090459;28;20848;-58
2023/05/13 03:12:57;;;;;;;9.20;0.52;;;9.10;99.90;;;;;;5090425;28;20603;-58
2023/05/13 03:15:22;;;;;;;0.00;0.00;;;9.20;99.90;;;;;;5089988;28;20359;-58
2023/05/13 03:17:48;;;;;;;0.00;0.00;;;9.10;99.90;;;;;;5090306;28;20255;-58
2023/05/13 03:20:13;;;;;;;0.00;0.00;;;9.10;99.90;;;;;;5090193;28;20207;-58
2023/05/13 03:22:39;;;;;;;0.00;0.00;;;9.20;99.90;;;;;;5093483;28;20643;-58
2023/05/13 03:25:05;;;;;;;0.00;0.00;;;9.20;99.90;;;;;;5093758;28;20242;-58
2023/05/13 03:27:31;;;;;;;0.10;0.10;;;9.20;99.90;;;;;;5094465;28;20184;-58
2023/05/13 03:29:57;;;;;;;0.05;0.05;;;9.20;99.90;;;;;;5094047;28;20515;-58
2023/05/13 03:32:24;;;;;;;0.00;0.00;;;9.20;99.90;;;;;;5093263;28;20646;-58
2023/05/13 03:34:50;;;;;;;0.00;0.00;;;9.20;99.90;;;;;;5093898;28;20176;-57
2023/05/13 03:37:16;;;;;;;0.00;0.00;;;9.20;99.90;;;;;;5093578;28;20267;-58
2023/05/13 03:39:41;;;;;;;0.00;0.00;;;9.20;99.90;;;;;;5093480;28;20270;-58
2023/05/13 03:42:07;;;;;;;0.00;0.00;;;9.20;99.90;;;;;;5093537;28;20180;-58
2023/05/13 03:44:32;;;;;;;0.00;0.00;;;9.20;99.90;;;;;;5093628;28;20519;-57
2023/05/13 03:46:58;;;;;;;0.00;0.00;;;9.20;99.90;;;;;;5092991;28;20291;-58
2023/05/13 03:49:23;;;;;;;0.00;0.00;;;9.20;99.90;;;;;;5093326;28;20231;-58
2023/05/13 03:51:49;;;;;;;0.00;0.00;;;9.20;99.90;;;;;;5093596;28;20179;-57
2023/05/13 03:54:14;;;;;;;0.00;0.00;;;9.20;99.90;;;;;;5092396;28;20229;-58
2023/05/13 03:56:40;;;;;;;0.00;0.00;;;9.20;99.90;;;;;;5093625;28;20192;-57
2023/05/13 03:59:05;;;;;;;0.00;0.00;;;9.20;99.90;;;;;;5093469;28;20206;-58
2023/05/13 04:01:31;;;;;;;0.22;0.22;;;9.20;99.90;;;;;;5093136;28;20228;-55
2023/05/13 04:03:56;;;;;;;0.00;0.00;;;9.20;99.90;;;;;;5093400;28;20251;-55
2023/05/13 04:06:22;;;;;;;0.00;0.00;;;9.20;99.90;;;;;;5093203;28;20689;-55
2023/05/13 04:08:48;;;;;;;0.00;0.00;;;9.20;99.90;;;;;;5092598;28;20245;-55
2023/05/13 04:11:14;;;;;;;0.35;0.35;;;9.20;99.90;;;;;;5092223;28;20637;-55
2023/05/13 04:13:39;;;;;;;0.00;0.00;;;9.20;99.90;;;;;;5091991;28;20237;-55
2023/05/13 04:16:05;;;;;;;0.00;0.00;;;9.20;99.90;;;;;;5092076;28;20172;-55
2023/05/13 04:18:32;;;;;;;0.00;0.00;;;9.30;99.90;;;;;;5092401;28;20206;-55
2023/05/13 04:20:58;;;;;;;0.22;0.22;;;9.30;99.90;;;;;;5092114;28;20299;-55
2023/05/13 04:23:23;;;;;;;0.00;0.00;;;9.30;99.90;;;;;;5091978;28;20259;-55
2023/05/13 04:25:52;;;;;;;0.00;0.00;;;9.30;99.90;;;;;;5092154;28;20262;-55
2023/05/13 04:28:19;;;;;;;0.00;0.00;;;9.30;99.90;;;;;;5092416;28;20511;-55
2023/05/13 04:30:45;;;;;;;0.10;0.10;;;9.30;99.90;;;;;;5092046;28;20180;-55
2023/05/13 04:33:10;;;;;;;0.00;0.00;;;9.30;99.90;;;;;;5092071;28;20214;-55
2023/05/13 04:35:36;;;;;;;0.00;0.00;;;9.30;99.90;;;;;;5092196;28;20176;-55
2023/05/13 04:38:01;;;;;;;0.00;0.00;;;9.30;99.90;;;;;;5091655;28;20176;-56
2023/05/13 04:40:27;;;;;;;0.00;0.00;;;9.40;99.90;;;;;;5091825;28;20238;-55
2023/05/13 04:42:53;;;;;;;0.00;0.00;;;9.50;99.90;;;;;;5091617;28;20291;-55
2023/05/13 04:45:19;;;;;;;0.00;0.00;;;9.60;99.90;;;;;;5091797;28;20168;-55
2023/05/13 04:47:45;;;;;;;0.00;0.00;;;9.80;99.90;;;;;;5091828;28;20290;-55
2023/05/13 04:50:11;;;;;;;0.00;0.00;;;10.00;99.90;;;;;;5089694;28;20266;-55
2023/05/13 04:52:36;;;;;;;0.00;0.00;;;10.00;99.90;;;;;;5086372;28;20605;-55
2023/05/13 04:55:02;;;;;;;0.00;0.00;;;10.00;99.90;;;;;;5091809;28;20188;-55
2023/05/13 04:57:28;;;;;;;0.00;0.00;;;10.00;99.90;;;;;;5091503;28;20184;-55
2023/05/13 04:59:53;;;;;;;0.00;0.00;;;10.00;99.90;;;;;;5091465;28;20214;-55
2023/05/13 05:02:19;;;;;;;0.00;0.00;;;9.90;99.90;;;;;;5092047;28;20544;-55
2023/05/13 05:04:44;;;;;;;0.00;0.00;;;9.90;99.90;;;;;;5091641;28;20172;-55
2023/05/13 05:07:10;;;;;;;0.00;0.00;;;9.90;99.90;;;;;;5091681;28;20191;-55
2023/05/13 05:09:35;;;;;;;0.00;0.00;;;9.90;99.90;;;;;;5091424;28;20168;-55
2023/05/13 05:12:01;;;;;;;0.00;0.00;;;10.00;99.90;;;;;;5091664;28;20178;-55
2023/05/13 05:14:26;;;;;;;0.00;0.00;;;10.10;99.90;;;;;;5091639;28;20579;-55
2023/05/13 05:16:52;;;;;;;1.25;0.45;;;10.40;99.90;;;;;;5091580;28;20623;-55
2023/05/13 05:19:22;;;;;;;0.00;0.00;;;10.70;99.90;;;;;;5091242;28;20183;-55
2023/05/13 05:21:49;;;;;;;0.00;0.00;;;11.00;99.90;;;;;;5091379;28;20212;-55
2023/05/13 05:24:14;;;;;;;0.00;0.00;;;11.30;99.90;;;;;;5089862;28;20598;-54
2023/05/13 05:26:40;;;;;;;0.00;0.00;;;11.60;99.90;;;;;;5091505;28;20184;-55
2023/05/13 05:29:05;;;;;;;0.00;0.00;;;11.80;99.90;;;;;;5091097;28;20707;-55
2023/05/13 05:31:31;;;;;;;0.00;0.00;;;12.00;99.90;;;;;;5091158;28;20644;-56
2023/05/13 05:33:57;;;;;;;0.00;0.00;;;12.30;99.90;;;;;;5091367;28;20259;-55
2023/05/13 05:36:24;;;;;;;0.00;0.00;;;12.60;99.90;;;;;;5090274;28;20184;-55
2023/05/13 05:38:49;;;;;;;0.30;0.30;;;13.20;99.90;;;;;;5090490;28;20654;-55
2023/05/13 05:41:15;;;;;;;0.00;0.00;;;14.00;99.90;;;;;;5091095;28;20216;-55
2023/05/13 05:43:40;;;;;;;0.00;0.00;;;14.80;99.90;;;;;;5090398;28;20199;-55
2023/05/13 05:46:06;;;;;;;0.00;0.00;;;15.60;99.90;;;;;;5091080;28;20210;-55
2023/05/13 05:48:31;;;;;;;0.30;0.20;;;16.30;99.90;;;;;;5090978;28;20187;-56
2023/05/13 05:50:57;;;;;;;0.00;0.00;;;17.00;99.90;;;;;;5090601;28;20190;-56
2023/05/13 05:53:22;;;;;;;0.00;0.00;;;17.70;99.90;;;;;;5089356;28;20198;-56
2023/05/13 05:55:48;;;;;;;0.00;0.00;;;18.20;99.90;;;;;;5089781;28;20187;-56
2023/05/13 05:58:15;;;;;;;0.05;0.05;;;18.90;99.90;;;;;;5090606;28;20290;-55
2023/05/13 06:00:40;;;;;;;0.00;0.00;;;19.40;98.30;;;;;;5090425;28;20259;-57
2023/05/13 06:03:06;;;;;;;0.00;0.00;;;19.90;96.80;;;;;;5090826;28;20211;-56
2023/05/13 06:05:32;;;;;;;0.00;0.00;;;20.30;95.50;;;;;;5090718;28;20547;-57
2023/05/13 06:07:57;;;;;;;0.00;0.00;;;20.70;93.70;;;;;;5090436;28;20531;-56
2023/05/13 06:10:23;;;;;;;0.00;0.00;;;21.00;92.70;;;;;;5090037;28;20180;-57
2023/05/13 06:12:50;;;;;;;0.00;0.00;;;21.20;91.20;;;;;;5096221;28;20167;-56
2023/05/13 06:15:15;;;;;;;0.00;0.00;;;21.30;90.00;;;;;;5094337;27;20188;-57
2023/05/13 06:17:41;;;;;;;0.00;0.00;;;21.30;88.80;;;;;;5089837;28;20225;-55
2023/05/13 06:20:07;;;;;;;0.00;0.00;;;21.50;87.00;;;;;;5090819;28;20294;-56
2023/05/13 06:22:33;;;;;;;0.00;0.00;;;21.60;87.00;;;;;;5090359;28;20182;-56
2023/05/13 06:24:58;;;;;;;0.05;0.05;;;21.60;86.90;;;;;;5089717;28;20578;-56
2023/05/13 06:27:24;;;;;;;0.00;0.00;;;21.90;87.70;;;;;;5090568;28;20175;-57
2023/05/13 06:29:50;;;;;;;0.00;0.00;;;22.40;85.40;;;;;;5090612;28;20206;-57
2023/05/13 06:32:15;;;;;;;0.00;0.00;;;22.50;80.60;;;;;;5090431;28;20176;-57
2023/05/13 06:34:44;;;;;;;0.00;0.00;;;22.50;79.80;;;;;;5090240;28;20545;-57
2023/05/13 06:37:13;;;;;;;0.00;0.00;;;22.70;80.60;;;;;;5090723;28;20218;-57
2023/05/13 06:39:39;;;;;;;0.00;0.00;;;23.10;79.40;;;;;;5090640;28;20172;-56
2023/05/13 06:42:05;;;;;;;0.00;0.00;;;22.90;77.00;;;;;;5090632;28;20191;-56
2023/05/13 06:44:31;;;;;;;0.00;0.00;;;22.60;76.70;;;;;;5090852;28;20272;-56
2023/05/13 06:46:56;;;;;;;0.00;0.00;;;22.20;76.50;;;;;;5089613;28;20257;-56
2023/05/13 06:49:23;;;;;;;0.00;0.00;;;21.90;77.70;;;;;;5090469;28;20188;-57
2023/05/13 06:51:49;;;;;;;0.00;0.00;;;22.20;78.50;;;;;;5090304;28;20285;-56
2023/05/13 06:54:15;;;;;;;0.00;0.00;;;22.60;78.10;;;;;;5090083;28;20267;-56
2023/05/13 06:56:41;;;;;;;0.00;0.00;;;22.60;77.00;;;;;;5093424;28;20184;-56
2023/05/13 06:59:06;;;;;;;0.00;0.00;;;22.40;76.30;;;;;;5094002;28;20279;-56
2023/05/13 07:01:32;;;;;;;0.00;0.00;;;21.70;75.30;;;;;;5093155;28;20228;-56
2023/05/13 07:03:57;;;;;;;0.00;0.00;;;20.80;76.40;;;;;;5092668;28;20764;-56
2023/05/13 07:06:23;;;;;;;0.00;0.00;;;20.00;78.40;;;;;;5094685;28;20176;-56
2023/05/13 07:08:48;;;;;;;0.00;0.00;;;19.10;81.30;;;;;;5089973;28;20263;-56
2023/05/13 07:11:14;;;;;;;0.00;0.00;;;18.40;84.10;;;;;;5094296;28;20180;-56
2023/05/13 07:13:39;;;;;;;0.00;0.00;;;17.80;87.00;;;;;;5095036;28;20175;-56
2023/05/13 07:16:05;;;;;;;0.00;0.00;;;17.20;89.70;;;;;;5094407;28;20183;-56
2023/05/13 07:18:30;;;;;;;0.00;0.00;;;16.80;90.90;;;;;;5094641;28;20187;-56
2023/05/13 07:20:56;;;;;;;0.00;0.00;;;16.60;91.80;;;;;;5094350;28;20662;-56
2023/05/13 07:23:22;;;;;;;0.00;0.00;;;16.50;92.40;;;;;;5094623;28;20255;-56
2023/05/13 07:25:50;;;;;;;0.00;0.00;;;16.30;92.60;;;;;;5094643;28;20212;-56
2023/05/13 07:28:15;;;;;;;0.00;0.00;;;16.10;92.80;;;;;;5094261;28;20180;-56
2023/05/13 07:30:41;;;;;;;0.00;0.00;;;16.00;93.30;;;;;;5093634;28;20233;-55
2023/05/13 07:33:08;;;;;;;0.00;0.00;;;16.00;94.00;;;;;;5093560;28;20192;-56
2023/05/13 07:35:33;;;;;;;0.00;0.00;;;16.10;94.40;;;;;;5094159;28;20176;-56
2023/05/13 07:37:59;;;;;;;0.00;0.00;;;16.10;94.60;;;;;;5094250;28;20688;-56
2023/05/13 07:40:24;;;;;;;0.00;0.00;;;16.20;95.20;;;;;;5094291;28;20200;-56
2023/05/13 07:42:50;;;;;;;0.00;0.00;;;16.30;95.50;;;;;;5094513;28;20177;-56
2023/05/13 07:45:15;;;;;;;0.00;0.00;;;16.40;95.40;;;;;;5094403;28;20687;-56
2023/05/13 07:47:41;;;;;;;0.00;0.00;;;16.50;95.10;;;;;;5094358;28;20180;-56
2023/05/13 07:50:07;;;;;;;0.00;0.00;;;16.40;94.80;;;;;;5093934;28;20221;-56
2023/05/13 07:52:33;;;;;;;0.00;0.00;;;16.40;94.80;;;;;;5094027;28;20657;-56
2023/05/13 07:54:58;;;;;;;0.00;0.00;;;16.30;94.60;;;;;;5093967;28;20180;-56
2023/05/13 07:57:24;;;;;;;0.00;0.00;;;16.20;95.30;;;;;;5094286;28;20209;-56
2023/05/13 07:59:49;;;;;;;0.00;0.00;;;16.30;95.60;;;;;;5093979;28;20176;-56
2023/05/13 08:02:15;;;;;;;0.00;0.00;;;16.60;95.70;;;;;;5093918;28;20188;-56
2023/05/13 08:04:40;;;;;;;0.00;0.00;;;16.70;95.20;;;;;;5093978;28;20176;-56
2023/05/13 08:07:06;;;;;;;0.00;0.00;;;17.00;95.30;;;;;;5092999;28;20184;-56
2023/05/13 08:09:32;;;;;;;0.00;0.00;;;17.40;95.00;;;;;;5093846;28;20176;-56
2023/05/13 08:11:57;;;;;;;0.70;0.35;;;17.50;93.70;;;;;;5093535;28;20184;-56
2023/05/13 08:14:23;;;;;;;0.00;0.00;;;17.70;93.60;;;;;;5093795;28;20172;-56
2023/05/13 08:16:48;;;;;;;0.00;0.00;;;18.00;93.40;;;;;;5093715;28;20569;-56
2023/05/13 08:19:14;;;;;;;0.00;0.00;;;18.60;93.50;;;;;;5093415;28;20180;-56
2023/05/13 08:21:40;;;;;;;0.20;0.20;;;19.20;92.50;;;;;;5093619;28;20710;-56
2023/05/13 08:24:05;;;;;;;0.00;0.00;;;20.00;92.10;;;;;;5093165;28;20216;-56
2023/05/13 08:26:32;;;;;;;0.00;0.00;;;20.60;91.00;;;;;;5093393;28;20180;-56
2023/05/13 08:28:58;;;;;;;0.00;0.00;;;20.90;90.20;;;;;;5093559;28;20575;-56
2023/05/13 08:31:24;;;;;;;0.00;0.00;;;20.80;86.50;;;;;;5093429;28;20180;-56
2023/05/13 08:33:52;;;;;;;0.00;0.00;;;20.60;87.70;;;;;;5093383;28;20225;-56
2023/05/13 08:36:18;;;;;;;0.00;0.00;;;20.50;89.40;;;;;;5093118;28;20251;-56
2023/05/13 08:38:43;;;;;;;0.00;0.00;;;20.40;88.00;;;;;;5093212;28;20259;-56
2023/05/13 08:41:11;;;;;;;0.00;0.00;;;20.30;88.30;;;;;;5093168;28;20222;-56
2023/05/13 08:43:38;;;;;;;0.10;0.10;;;20.10;88.20;;;;;;5093381;28;20170;-56
2023/05/13 08:46:07;;;;;;;0.00;0.00;;;19.70;86.70;;;;;;5093076;28;20209;-56
2023/05/13 08:48:34;;;;;;;0.00;0.00;;;19.50;89.20;;;;;;5093258;28;20183;-56
2023/05/13 08:51:03;;;;;;;0.00;0.00;;;19.50;90.10;;;;;;5092740;28;20175;-56
2023/05/13 08:53:30;;;;;;;0.00;0.00;;;19.50;89.10;;;;;;5093152;28;20177;-56
2023/05/13 08:55:56;;;;;;;0.00;0.00;;;19.60;89.50;;;;;;5092998;28;20583;-56
2023/05/13 08:58:22;;;;;;;0.00;0.00;;;19.80;90.10;;;;;;5092928;28;20546;-56
2023/05/13 09:00:48;;;;;;;0.00;0.00;;;20.00;90.00;;;;;;5092808;28;20208;-56
2023/05/13 09:03:14;;;;;;;0.00;0.00;;;20.10;88.80;;;;;;5092736;28;20172;-56
2023/05/13 09:05:42;;;;;;;0.00;0.00;;;20.20;87.80;;;;;;5092697;28;20607;-56
2023/05/13 09:08:08;;;;;;;0.00;0.00;;;20.20;86.80;;;;;;5092549;28;20635;-56
2023/05/13 09:10:34;;;;;;;0.00;0.00;;;20.10;87.20;;;;;;5092360;28;20229;-56
2023/05/13 09:13:00;;;;;;;0.00;0.00;;;20.20;88.60;;;;;;5092529;28;20263;-56
2023/05/13 09:15:27;;;;;;;0.00;0.00;;;20.40;87.50;;;;;;5088050;28;20271;-56
2023/05/13 09:18:02;;;;;;;0.00;0.00;;;20.70;87.10;;;;;;5090956;28;20602;-56
2023/05/13 09:20:28;;;;;;;0.00;0.00;;;20.90;86.40;;;;;;5090548;28;20685;-56
2023/05/13 09:22:57;;;;;;;0.00;0.00;;;21.10;83.60;;;;;;5088224;28;20196;-56
2023/05/13 09:25:24;;;;;;;0.00;0.00;;;21.10;84.60;;;;;;5071795;28;20733;-56
2023/05/13 09:28:01;;;;;;;0.00;0.00;;;21.30;84.20;;;;;;5071902;28;20230;-56
2023/05/13 09:30:29;;;;;;;0.00;0.00;;;21.40;83.50;;;;;;5071647;28;20208;-56
2023/05/13 09:33:13;;;;;;;0.00;0.00;;;21.30;83.20;;;;;;5071109;28;20199;-56
2023/05/13 09:35:42;;;;;;;0.00;0.00;;;21.10;82.70;;;;;;5071712;28;20176;-56
2023/05/13 09:38:18;;;;;;;0.00;0.00;;;20.90;83.50;;;;;;5071279;28;20750;-56
2023/05/13 09:40:56;;;;;;;0.00;0.00;;;20.90;83.80;;;;;;5071520;28;20602;-56
2023/05/13 09:43:24;;;;;;;0.00;0.00;;;21.00;82.90;;;;;;5071391;28;20183;-56
2023/05/13 09:45:59;;;;;;;0.00;0.00;;;20.80;82.60;;;;;;5071457;28;20177;-56
2023/05/13 09:48:27;;;;;;;0.00;0.00;;;20.60;83.70;;;;;;5071419;28;20181;-56
2023/05/13 09:50:54;;;;;;;0.00;0.00;;;20.50;83.30;;;;;;5071001;28;20690;-56
2023/05/13 09:53:20;;;;;;;0.00;0.00;;;20.30;83.50;;;;;;5071325;28;20286;-56
2023/05/13 09:55:47;;;;;;;0.00;0.00;;;20.20;84.50;;;;;;5071268;28;20635;-56
2023/05/13 09:58:13;;;;;;;0.00;0.00;;;20.20;85.30;;;;;;5070895;28;20169;-56
2023/05/13 10:00:40;;;;;;;0.00;0.00;;;20.10;85.20;;;;;;5071208;28;20740;-56
2023/05/13 10:03:06;;;;;;;0.00;0.00;;;20.10;84.40;;;;;;5071084;28;20280;-56
2023/05/13 10:05:32;;;;;;;0.00;0.00;;;20.00;85.70;;;;;;5070953;28;20400;-56
2023/05/13 10:08:00;;;;;;;0.00;0.00;;;19.90;85.20;;;;;;5071080;28;20693;-56
2023/05/13 10:10:29;;;;;;;0.00;0.00;;;19.80;86.00;;;;;;5071095;28;20185;-56
2023/05/13 10:12:55;;;;;;;0.00;0.00;;;19.60;86.60;;;;;;5070783;28;20179;-56
2023/05/13 10:15:21;;;;;;;0.00;0.00;;;19.60;87.00;;;;;;5070974;28;20531;-56
2023/05/13 10:17:47;;;;;;;0.00;0.00;;;19.60;86.60;;;;;;5071010;28;20253;-56
2023/05/13 10:20:13;;;;;;;0.00;0.00;;;19.50;86.90;;;;;;5070845;28;20666;-56
2023/05/13 10:22:39;;;;;;;0.00;0.00;;;19.60;87.10;;;;;;5073523;28;20215;-56
2023/05/13 10:25:06;;;;;;;0.00;0.00;;;19.60;86.40;;;;;;5070707;28;20252;-56
2023/05/13 10:27:32;;;;;;;0.00;0.00;;;19.70;87.60;;;;;;5070887;28;20180;-56
2023/05/13 10:30:00;;;;;;;0.00;0.00;;;19.60;86.50;;;;;;5070341;28;20168;-56
2023/05/13 10:32:29;;;;;;;0.00;0.00;;;19.50;86.90;;;;;;5070687;28;20180;-56
2023/05/13 10:35:02;;;;;;;0.00;0.00;;;19.70;89.10;;;;;;5070631;28;20167;-56
2023/05/13 10:37:45;;;;;;;0.00;0.00;;;19.90;86.60;;;;;;5070967;28;20219;-56
2023/05/13 10:40:23;;;;;;;0.00;0.00;;;20.00;86.70;;;;;;5086765;28;20200;-56
2023/05/13 10:43:12;;;;;;;0.00;0.00;;;20.20;85.90;;;;;;5090977;28;20175;-56
2023/05/13 10:45:38;;;;;;;0.00;0.00;;;20.20;85.30;;;;;;5090660;28;20225;-56
2023/05/13 10:48:09;;;;;;;0.00;0.00;;;20.30;85.00;;;;;;5090725;28;20267;-56
2023/05/13 10:50:37;;;;;;;0.00;0.00;;;20.20;84.50;;;;;;5090786;28;20172;-56
2023/05/13 10:53:09;;;;;;;0.00;0.00;;;20.00;85.30;;;;;;5090719;28;20260;-56
2023/05/13 10:55:42;;;;;;;0.00;0.00;;;19.90;85.20;;;;;;5090773;28;20261;-56
2023/05/13 10:58:09;;;;;;;0.00;0.00;;;19.60;85.50;;;;;;5090819;28;20168;-56
2023/05/13 11:00:36;;;;;;;0.00;0.00;;;19.30;86.80;;;;;;5090541;28;20709;-56
2023/05/13 11:03:26;;;;;;;0.00;0.00;;;19.20;87.60;;;;;;5090676;28;20207;-56
2023/05/13 11:06:03;;;;;;;0.00;0.00;;;19.00;87.80;;;;;;5090828;28;20176;-56
2023/05/13 11:08:35;;;;;;;0.00;0.00;;;19.00;89.00;;;;;;5090679;28;20183;-56
2023/05/13 11:11:01;;;;;;;0.00;0.00;;;19.00;89.30;;;;;;5090622;28;20176;-56
2023/05/13 11:13:36;;;;;;;0.00;0.00;;;18.90;88.90;;;;;;5090677;28;20534;-56
2023/05/13 11:16:05;;;;;;;0.00;0.00;;;18.70;90.00;;;;;;5090525;28;20183;-56
2023/05/13 11:18:33;;;;;;;0.00;0.00;;;18.70;90.70;;;;;;5090826;28;20281;-56
2023/05/13 11:21:06;;;;;;;0.00;0.00;;;18.70;90.60;;;;;;5090502;28;20253;-56
2023/05/13 11:23:52;;;;;;;0.00;0.00;;;18.90;90.90;;;;;;5090328;28;20206;-56
2023/05/13 11:26:20;;;;;;;0.00;0.00;;;19.20;90.50;;;;;;5106144;28;20542;-56
2023/05/13 11:29:05;;;;;;;0.00;0.00;;;19.40;90.20;;;;;;5090572;28;20172;-56
2023/05/13 11:31:55;;;;;;;0.00;0.00;;;19.30;89.60;;;;;;5090455;28;20194;-56
2023/05/13 11:34:22;;;;;;;0.00;0.00;;;19.20;89.30;;;;;;5090498;28;20642;-56
2023/05/13 11:36:50;;;;;;;0.00;0.00;;;19.20;90.10;;;;;;5090399;28;20635;-56
2023/05/13 11:39:21;;;;;;;0.00;0.00;;;19.00;90.50;;;;;;5090600;28;20184;-56
2023/05/13 11:41:49;;;;;;;0.00;0.00;;;18.90;90.90;;;;;;5090537;28;20212;-56
2023/05/13 11:44:19;;;;;;;0.00;0.00;;;18.80;91.00;;;;;;5094046;28;20172;-56
2023/05/13 11:46:54;;;;;;;0.00;0.00;;;18.80;91.10;;;;;;5094636;28;20172;-56
2023/05/13 11:49:32;;;;;;;0.00;0.00;;;18.80;91.30;;;;;;5094104;28;20168;-56
2023/05/13 11:52:08;;;;;;;0.00;0.00;;;18.80;91.60;;;;;;5094166;28;20190;-56
2023/05/13 11:54:49;;;;;;;0.00;0.00;;;19.00;91.50;;;;;;5094049;28;20183;-56
2023/05/13 11:57:22;;;;;;;0.00;0.00;;;19.00;91.30;;;;;;5093939;28;20515;-56
2023/05/13 11:59:56;;;;;;;0.00;0.00;;;19.10;91.10;;;;;;5093805;28;20172;-56
2023/05/13 12:02:27;;;;;;;0.22;0.22;;;19.20;91.20;;;;;;5093708;28;20183;-56
2023/05/13 12:04:53;;;;;;;0.00;0.00;;;19.20;91.00;;;;;;5093237;28;20172;-56
2023/05/13 12:07:23;;;;;;;0.00;0.00;;;19.30;90.90;;;;;;5093094;28;20187;-56
2023/05/13 12:09:50;;;;;;;0.00;0.00;;;19.30;90.20;;;;;;5092052;28;20176;-55
2023/05/13 12:12:17;;;;;;;0.00;0.00;;;19.40;90.80;;;;;;5092782;28;20650;-56
2023/05/13 12:14:45;;;;;;;0.00;0.00;;;19.40;90.50;;;;;;5091198;28;20168;-56
2023/05/13 12:17:13;;;;;;;0.00;0.00;;;19.20;90.00;;;;;;5093343;28;20647;-56
2023/05/13 12:19:49;;;;;;;0.00;0.00;;;19.20;90.00;;;;;;5093600;28;20263;-56
2023/05/13 12:22:15;;;;;;;0.00;0.00;;;19.10;90.30;;;;;;5092651;28;20175;-56
2023/05/13 12:24:40;;;;;;;0.00;0.00;;;19.20;90.10;;;;;;5082566;28;20250;-56
2023/05/13 12:27:06;;;;;;;0.00;0.00;;;19.20;88.70;;;;;;5093105;28;20187;-56
2023/05/13 12:29:42;;;;;;;0.00;0.00;;;19.10;88.80;;;;;;5093534;28;20487;-56
2023/05/13 12:32:10;;;;;;;0.00;0.00;;;19.10;88.40;;;;;;5086756;28;20184;-56
2023/05/13 12:34:37;;;;;;;0.00;0.00;;;19.10;87.90;;;;;;5092033;28;20184;-56
2023/05/13 12:37:10;;;;;;;0.00;0.00;;;19.20;89.10;;;;;;5093248;28;20207;-56
2023/05/13 12:39:36;;;;;;;0.00;0.00;;;19.20;89.40;;;;;;5080355;28;20263;-56
2023/05/13 12:42:02;;;;;;;0.00;0.00;;;19.30;89.90;;;;;;5089524;28;20339;-56
2023/05/13 12:44:29;;;;;;;0.00;0.00;;;19.20;90.10;;;;;;5092653;28;20176;-57
2023/05/13 12:46:56;;;;;;;0.00;0.00;;;19.30;90.40;;;;;;5092390;28;20176;-57
2023/05/13 12:49:22;;;;;;;0.00;0.00;;;19.20;90.00;;;;;;5092490;28;20187;-56